Latest Coastal Weather Observations for Rosslyn Bay Harbour

IDQ60701

Issued at 11:32 am EST Thursday 21 February 2019 (issued every 10 minutes, with the page automatically refreshed every 10 minutes)

About coastal observations | Map of coastal stations | Coastal observations for QLD | Marine services | Other Formats
Station Details ID: 033208 Name: ROSSLYN BAY NTC AWS Lat: -23.16 Lon: 150.79 Height: 0.0 m
Data from the previous 72 hours. | See also: Recent months for locations in Queensland
Date/Time
EST
Wind Sea
Height
m
Swell Vis
km
Cloud Weather Temp
°C
Press
hPa
Rain since
9am
mm
Dir  Spd
kts
Gust
kts
Height
m
Period
s
Dir
21/11:30am S 3 7 - - - - - - - 29.3 1005.9 -
21/11:00am S 2 7 - - - - - - - 29.1 1006.3 -
21/10:30am S 6 10 - - - - - - - 28.4 1006.5 -
21/10:00am S 5 8 - - - - - - - 28.0 1006.6 -
21/09:30am S 5 9 - - - - - - - 28.2 1006.6 -
21/09:00am S 5 9 - - - - - - - 28.1 1006.4 -
21/08:30am S 5 11 - - - - - - - 27.8 1006.2 -
21/08:00am S 7 13 - - - - - - - 27.6 1006.1 -
21/07:30am S 8 15 - - - - - - - 27.3 1005.9 -
21/07:00am S 7 15 - - - - - - - 27.3 1005.8 -
21/06:30am S 7 16 - - - - - - - 27.1 1005.7 -
21/06:00am S 6 13 - - - - - - - 27.0 1005.4 -
21/05:30am SSW 5 7 - - - - - - - 26.1 1005.0 -
21/05:00am S 6 11 - - - - - - - 27.1 1004.5 -
21/04:30am SSW 5 10 - - - - - - - 27.1 1004.5 -
21/04:00am SSW 1 5 - - - - - - - 26.5 1004.7 -
21/03:30am SSW 3 5 - - - - - - - 26.1 1004.6 -
21/03:00am SSW 2 4 - - - - - - - 25.9 1004.6 -
21/02:30am SSW 3 4 - - - - - - - 26.3 1004.5 -
21/02:00am SW 3 5 - - - - - - - 26.8 1004.9 -
21/01:30am WSW 1 3 - - - - - - - 27.2 1004.7 -
21/01:00am SW 2 4 - - - - - - - 27.3 1004.8 -
21/12:30am SW 2 6 - - - - - - - 27.5 1005.2 -
21/12:00am W 2 5 - - - - - - - 27.4 1005.1 -
 
Date/Time
EST
Wind Sea
Height
m
Swell Vis
km
Cloud Weather Temp
°C
Press
hPa
Rain since
9am
mm
Dir  Spd
kts
Gust
kts
Height
m
Period
s
Dir
20/11:30pm WNW 2 7 - - - - - - - 27.5 1005.4 -
20/11:00pm SSW 3 9 - - - - - - - 27.6 1005.6 -
20/10:30pm WSW 4 8 - - - - - - - 27.7 1005.5 -
20/10:00pm S 4 8 - - - - - - - 27.7 1006.1 -
20/09:30pm WSW 3 8 - - - - - - - 27.7 1005.8 -
20/09:00pm ENE 2 7 - - - - - - - 27.8 1005.6 -
20/08:30pm E 2 7 - - - - - - - 27.7 1005.5 -
20/08:00pm NE 2 7 - - - - - - - 27.9 1005.5 -
20/07:30pm ENE 4 8 - - - - - - - 28.1 1004.8 -
20/07:00pm E 2 7 - - - - - - - 28.2 1004.3 -
20/06:30pm E 2 7 - - - - - - - 28.3 1003.9 -
20/06:00pm ENE 3 9 - - - - - - - 28.6 1003.5 -
20/05:30pm E 3 8 - - - - - - - 28.4 1003.2 -
20/05:00pm ENE 5 11 - - - - - - - 28.4 1003.1 -
20/04:30pm ENE 6 13 - - - - - - - 28.7 1003.0 -
20/04:00pm ENE 6 14 - - - - - - - 28.6 1003.1 -
20/03:30pm ENE 8 14 - - - - - - - 28.8 1003.2 -
20/03:00pm ENE 7 13 - - - - - - - 28.6 1003.5 -
20/02:30pm ENE 7 13 - - - - - - - 28.6 1004.0 -
20/02:00pm E 3 10 - - - - - - - 28.8 1004.3 -
20/01:30pm ENE 3 8 - - - - - - - 29.0 1004.8 -
20/01:00pm W 2 7 - - - - - - - 28.1 1005.4 -
20/12:30pm W 3 8 - - - - - - - 28.4 1005.9 -
20/12:00pm S 3 7 - - - - - - - 28.7 1006.4 -
20/11:30am SSW 1 5 - - - - - - - 29.6 1006.8 -
20/11:00am S 2 7 - - - - - - - 29.1 1007.0 -
20/10:30am S 7 11 - - - - - - - 27.4 1007.2 -
20/10:00am S 8 12 - - - - - - - 27.1 1007.5 -
20/09:30am S 6 9 - - - - - - - 27.5 1007.6 -
20/09:00am SSE 4 8 - - - - - - - 27.3 1007.4 -
20/08:30am S 3 6 - - - - - - - 27.1 1007.4 -
20/08:00am S 2 5 - - - - - - - 27.0 1007.1 -
20/07:30am SW 3 6 - - - - - - - 26.2 1006.9 -
20/07:00am WSW 5 8 - - - - - - - 25.0 1006.8 -
20/06:30am WSW 4 6 - - - - - - - 24.7 1006.6 -
20/06:00am WSW 3 5 - - - - - - - 24.3 1006.3 -
20/05:30am WSW 3 5 - - - - - - - 24.6 1005.9 -
20/05:00am WSW 2 4 - - - - - - - 24.9 1005.5 -
20/04:30am W 1 4 - - - - - - - 25.2 1005.4 -
20/04:00am W 2 3 - - - - - - - 25.4 1005.3 -
20/03:30am W 2 3 - - - - - - - 25.4 1004.9 -
20/03:00am ENE 2 5 - - - - - - - 26.7 1004.9 -
20/02:30am WSW 1 2 - - - - - - - 26.6 1004.8 -
20/02:00am SSW 1 3 - - - - - - - 26.6 1004.9 -
20/01:30am SSE 1 4 - - - - - - - 26.8 1005.3 -
20/01:00am ESE 1 3 - - - - - - - 26.7 1005.7 -
20/12:30am ENE 4 8 - - - - - - - 26.9 1006.0 -
20/12:00am E 2 7 - - - - - - - 26.8 1006.4 -
 
Date/Time
EST
Wind Sea
Height
m
Swell Vis
km
Cloud Weather Temp
°C
Press
hPa
Rain since
9am
mm
Dir  Spd
kts
Gust
kts
Height
m
Period
s
Dir
19/11:30pm ENE 4 8 - - - - - - - 26.8 1006.8 -
19/11:00pm NE 5 8 - - - - - - - 26.7 1007.0 -
19/10:30pm NE 5 8 - - - - - - - 26.8 1007.1 -
19/10:00pm ENE 7 10 - - - - - - - 27.0 1007.3 -
19/09:30pm ENE 5 9 - - - - - - - 27.1 1007.2 -
19/09:00pm ENE 5 9 - - - - - - - 27.2 1007.0 -
19/08:30pm ENE 4 9 - - - - - - - 27.4 1006.7 -
19/08:00pm ENE 8 12 - - - - - - - 27.4 1006.2 -
19/07:30pm ENE 9 14 - - - - - - - 27.5 1005.6 -
19/07:00pm NE 12 14 - - - - - - - 27.5 1005.1 -
19/06:30pm NE 8 12 - - - - - - - 27.8 1004.7 -
19/06:00pm NNE 8 13 - - - - - - - 28.0 1004.3 -
19/05:30pm ENE 8 10 - - - - - - - 27.8 1003.9 -
19/05:00pm ENE 5 10 - - - - - - - 28.6 1003.8 -
19/04:30pm ENE 8 13 - - - - - - - 28.7 1003.7 -
19/04:00pm ENE 10 12 - - - - - - - 28.0 1003.7 -
19/03:30pm ENE 9 11 - - - - - - - 27.9 1003.8 -
19/03:00pm NE 7 8 - - - - - - - 27.8 1004.0 -
19/02:30pm NE 7 8 - - - - - - - 27.6 1004.2 -
19/02:00pm ENE 4 8 - - - - - - - 28.5 1004.7 -
19/01:30pm ENE 2 8 - - - - - - - 29.2 1005.4 -
19/01:00pm ENE 3 9 - - - - - - - 28.4 1006.0 -
19/12:30pm ESE 3 9 - - - - - - - 27.6 1006.7 -
19/12:00pm SSW 3 7 - - - - - - - 27.4 1007.3 -
19/11:30am S 5 11 - - - - - - - 27.1 1007.8 -
19/11:00am S 8 13 - - - - - - - 26.4 1008.3 -
19/10:30am S 7 10 - - - - - - - 25.9 1008.7 -
19/10:00am S 7 11 - - - - - - - 25.8 1009.0 -
19/09:30am S 7 11 - - - - - - - 25.5 1009.2 -
19/09:00am S 6 9 - - - - - - - 25.5 1009.1 -
19/08:30am S 6 10 - - - - - - - 25.3 1009.3 -
19/08:00am S 5 8 - - - - - - - 25.2 1009.2 -
19/07:30am SSW 3 6 - - - - - - - 24.5 1009.0 -
19/07:00am SSW 4 6 - - - - - - - 23.6 1008.7 -
19/06:30am SSW 4 5 - - - - - - - 22.8 1008.6 -
19/06:00am SSW 4 5 - - - - - - - 23.1 1008.1 -
19/05:30am SSW 4 6 - - - - - - - 23.2 1007.8 -
19/05:00am SSW 5 7 - - - - - - - 23.5 1007.7 -
19/04:30am SSW 4 6 - - - - - - - 24.0 1007.4 -
19/04:00am SSW 4 6 - - - - - - - 25.2 1007.2 -
19/03:30am S 5 9 - - - - - - - 26.4 1007.3 -
19/03:00am S 4 8 - - - - - - - 26.4 1007.3 -
19/02:30am S 6 9 - - - - - - - 26.5 1007.4 -
19/02:00am S 6 11 - - - - - - - 26.6 1007.4 -
19/01:30am S 7 11 - - - - - - - 26.6 1007.6 -
19/01:00am S 6 10 - - - - - - - 26.6 1007.8 -
19/12:30am S 7 11 - - - - - - - 26.6 1008.3 -
19/12:00am S 7 10 - - - - - - - 26.7 1008.8 -
 
Date/Time
EST
Wind Sea
Height
m
Swell Vis
km
Cloud Weather Temp
°C
Press
hPa
Rain since
9am
mm
Dir  Spd
kts
Gust
kts
Height
m
Period
s
Dir
18/11:30pm S 7 10 - - - - - - - 26.8 1009.2 -
18/11:00pm S 5 9 - - - - - - - 26.9 1009.4 -
18/10:30pm S 4 10 - - - - - - - 26.8 1009.6 -
18/10:00pm S 5 9 - - - - - - - 27.0 1009.6 -
18/09:30pm SSW 3 9 - - - - - - - 27.0 1009.5 -
18/09:00pm SSW 5 9 - - - - - - - 27.1 1009.2 -
18/08:30pm SSW 4 10 - - - - - - - 26.9 1009.1 -
18/08:00pm S 4 10 - - - - - - - 27.0 1008.8 -
18/07:30pm SW 3 8 - - - - - - - 27.2 1008.4 -
18/07:00pm SW 4 8 - - - - - - - 27.2 1007.6 -
18/06:30pm SW 3 10 - - - - - - - 27.3 1007.4 -
18/06:00pm E 3 11 - - - - - - - 27.6 1007.1 -
18/05:30pm ENE 3 11 - - - - - - - 28.4 1007.0 -
18/05:00pm ENE 2 9 - - - - - - - 28.3 1006.7 -
18/04:30pm ENE 5 12 - - - - - - - 28.3 1006.7 -
18/04:00pm E 3 13 - - - - - - - 28.6 1006.6 -
18/03:30pm ESE 3 13 - - - - - - - 28.6 1006.7 -
18/03:00pm SSE 2 7 - - - - - - - 28.3 1007.0 -
18/02:30pm N 2 8 - - - - - - - 28.8 1007.4 -
18/02:00pm W 3 7 - - - - - - - 28.3 1007.8 -
18/01:30pm SW 2 6 - - - - - - - 28.1 1008.2 -
18/01:00pm S 5 10 - - - - - - - 27.8 1008.6 -
18/12:30pm S 9 12 - - - - - - - 27.1 1009.2 -
18/12:00pm S 8 14 - - - - - - - 26.9 1009.7 -

Other formats

Comma delimited format used in spreadsheet applications
http://www.bom.gov.au/fwo/IDQ60701/IDQ60701.95298.axf

JavaScript Object Notation format (JSON) in row-major order
http://www.bom.gov.au/fwo/IDQ60701/IDQ60701.95298.json

Data quality

Most of these data are generated automatically and are frequently updated. Quality checks on data are not normally performed. It is possible for incorrect values to appear. Refer to information at About Latest Weather Observations and please check the disclaimer before using these data.